Time;durP1;ratioP1;P1;durP2;ratioP2;P2;SDS_P1;SDS_P2;PMS_P1;PMS_P2;Temp;Humidity;BMP_temperature;BMP_pressure;BME280_temperature;BME280_humidity;BME280_pressure;Samples;Min_cycle;Max_cycle;Signal;HPM_P1;HPM_P2
2022/04/27 00:00:49;;;;;;;9.57;5.13;;;;;;;15.05;81.45;100057.59;5028749;28;20075;-31
2022/04/27 00:03:14;;;;;;;9.75;4.70;;;;;;;14.61;81.80;100054.84;5028737;28;20111;-28
2022/04/27 00:05:40;;;;;;;7.50;4.68;;;;;;;14.25;84.29;100056.94;5028682;28;20033;-30
2022/04/27 00:08:05;;;;;;;8.00;4.10;;;;;;;14.41;82.90;100056.13;5029152;28;20040;-29
2022/04/27 00:10:31;;;;;;;8.18;4.60;;;;;;;14.55;82.42;100045.88;5028773;28;20040;-30
2022/04/27 00:12:56;;;;;;;6.90;4.35;;;;;;;14.69;80.82;100032.97;5028955;28;20037;-29
2022/04/27 00:15:25;;;;;;;7.47;4.20;;;;;;;14.81;79.76;100048.94;5028719;28;20048;-29
2022/04/27 00:17:50;;;;;;;7.50;4.43;;;;;;;14.61;80.40;100028.03;5028881;28;20083;-28
2022/04/27 00:20:16;;;;;;;6.72;3.72;;;;;;;14.35;82.99;100041.00;5028383;28;20042;-33
2022/04/27 00:22:41;;;;;;;6.90;4.45;;;;;;;14.61;81.56;100036.88;5028616;28;20544;-29
2022/04/27 00:25:07;;;;;;;7.50;4.50;;;;;;;14.94;79.10;100045.13;5028496;28;20116;-31
2022/04/27 00:27:33;;;;;;;6.78;4.30;;;;;;;14.86;79.89;100031.03;5028780;28;20080;-29
2022/04/27 00:29:59;;;;;;;6.93;4.45;;;;;;;15.02;79.31;100040.13;5028643;28;20025;-29
2022/04/27 00:32:25;;;;;;;8.55;4.10;;;;;;;15.01;79.48;100024.25;5028274;28;20025;-34
2022/04/27 00:34:51;;;;;;;7.97;4.53;;;;;;;15.18;79.03;100027.69;5028273;28;20072;-29
2022/04/27 00:37:18;;;;;;;9.23;4.95;;;;;;;15.39;78.06;100042.19;5027974;28;20088;-29
2022/04/27 00:39:44;;;;;;;8.97;5.13;;;;;;;15.10;77.88;100022.78;5028388;28;20022;-29
2022/04/27 00:42:17;;;;;;;6.55;5.18;;;;;;;15.31;78.45;100025.69;5026778;28;20032;-28
2022/04/27 00:44:44;;;;;;;8.93;4.70;;;;;;;15.51;77.96;100039.38;5026596;28;20498;-28
2022/04/27 00:47:14;;;;;;;8.40;5.22;;;;;;;15.35;79.07;100032.19;5027948;28;20025;-28
2022/04/27 00:49:46;;;;;;;7.88;4.82;;;;;;;15.13;79.61;100019.56;5027032;28;20033;-29
2022/04/27 00:52:14;;;;;;;7.95;4.80;;;;;;;15.22;78.75;100038.75;5028259;28;20026;-29
2022/04/27 00:54:41;;;;;;;8.50;4.75;;;;;;;14.97;79.38;100020.44;5026584;28;20029;-32
2022/04/27 00:57:07;;;;;;;9.98;5.03;;;;;;;15.18;78.69;100026.88;5026519;28;20029;-30
2022/04/27 00:59:33;;;;;;;8.10;4.55;;;;;;;15.13;79.27;100030.31;5027769;28;20030;-28
2022/04/27 01:01:58;;;;;;;9.18;4.82;;;;;;;15.10;79.70;100025.44;5026800;28;20087;-28
2022/04/27 01:04:24;;;;;;;10.75;5.32;;;;;;;15.13;78.80;100026.81;5026515;28;20036;-29
2022/04/27 01:06:50;;;;;;;9.38;5.35;;;;;;;15.02;80.09;100032.06;5027823;28;20495;-32
2022/04/27 01:09:17;;;;;;;9.10;5.20;;;;;;;14.82;80.18;100013.81;5026483;28;20029;-32
2022/04/27 01:11:44;;;;;;;10.57;6.20;;;;;;;14.80;81.55;100013.25;5026520;28;20114;-30
2022/04/27 01:14:10;;;;;;;12.35;5.70;;;;;;;14.83;81.63;100033.41;5027677;28;20103;-29
2022/04/27 01:16:35;;;;;;;7.60;5.32;;;;;;;14.67;83.25;100018.97;5028105;28;20025;-33
2022/04/27 01:19:01;;;;;;;9.32;6.13;;;;;;;14.50;83.88;99994.81;5027595;28;20488;-30
2022/04/27 01:21:26;;;;;;;8.27;5.55;;;;;;;14.81;82.05;100001.47;5027933;28;20026;-28
2022/04/27 01:23:53;;;;;;;10.93;6.05;;;;;;;14.93;81.78;100003.19;5027776;28;20033;-33
2022/04/27 01:26:19;;;;;;;9.68;6.20;;;;;;;14.54;83.91;100016.59;5027544;28;20034;-29
2022/04/27 01:28:45;;;;;;;9.13;5.85;;;;;;;14.61;83.43;100006.53;5027427;28;20080;-28
2022/04/27 01:31:11;;;;;;;10.02;5.85;;;;;;;14.55;82.60;99980.66;5027904;28;20838;-30
2022/04/27 01:33:38;;;;;;;8.10;5.70;;;;;;;14.69;82.37;100008.81;5027587;28;20107;-30
2022/04/27 01:36:08;;;;;;;8.13;5.70;;;;;;;14.68;82.45;99999.13;5027496;28;20541;-29
2022/04/27 01:38:35;;;;;;;8.23;5.40;;;;;;;14.65;81.96;100008.47;5026419;28;20442;-30
2022/04/27 01:41:02;;;;;;;8.80;5.25;;;;;;;14.59;80.51;99976.47;5027112;28;20105;-31
2022/04/27 01:43:29;;;;;;;9.48;5.82;;;;;;;14.63;80.80;100004.44;5027467;28;20037;-30
2022/04/27 01:45:55;;;;;;;9.45;5.45;;;;;;;14.82;80.22;100013.81;5027542;28;20033;-32
2022/04/27 01:48:20;;;;;;;9.85;5.53;;;;;;;14.43;81.14;100003.03;5026426;28;20091;-29
2022/04/27 01:50:46;;;;;;;8.77;5.57;;;;;;;14.44;80.62;100007.34;5027256;28;20418;-29
2022/04/27 01:55:56;;;;;;;7.30;5.10;;;;;;;14.11;81.89;100004.66;5031534;28;20047;-29
2022/04/27 01:58:25;;;;;;;7.57;5.57;;;;;;;14.11;82.39;100008.16;5030208;28;20412;-29
2022/04/27 02:00:51;;;;;;;6.40;4.72;;;;;;;14.00;82.34;100006.38;5031221;28;20104;-29
2022/04/27 02:03:21;;;;;;;9.65;5.03;;;;;;;13.93;83.34;100003.84;5031171;28;20061;-32
2022/04/27 02:05:47;;;;;;;6.68;5.13;;;;;;;14.12;83.24;100000.91;5031032;28;20026;-29
2022/04/27 02:08:13;;;;;;;8.00;5.38;;;;;;;13.96;83.22;99995.31;5031009;28;20029;-32
2022/04/27 02:10:39;;;;;;;8.52;5.60;;;;;;;13.92;84.19;100010.28;5030783;28;20033;-29
2022/04/27 02:13:09;;;;;;;7.20;5.00;;;;;;;13.93;84.15;100006.53;5031006;28;20029;-28
2022/04/27 02:15:35;;;;;;;7.15;5.07;;;;;;;14.07;83.68;100017.75;5029616;28;20052;-28
2022/04/27 02:18:01;;;;;;;9.00;4.78;;;;;;;13.81;84.08;99993.22;5030904;28;20422;-33
2022/04/27 02:20:27;;;;;;;7.93;4.75;;;;;;;13.96;83.90;99995.31;5030946;28;20030;-31
2022/04/27 02:22:53;;;;;;;7.20;4.90;;;;;;;14.04;83.82;100008.31;5030309;28;20033;-29
2022/04/27 02:25:20;;;;;;;10.88;5.18;;;;;;;13.91;83.10;100000.59;5030681;28;20037;-31
2022/04/27 02:27:45;;;;;;;9.75;5.70;;;;;;;13.81;83.55;100013.81;5031029;28;20028;-28
2022/04/27 02:30:11;;;;;;;12.75;5.18;;;;;;;13.80;83.71;100013.00;5030778;28;20029;-28
2022/04/27 02:32:39;;;;;;;8.18;4.70;;;;;;;13.81;82.95;99992.38;5030500;28;20044;-39
2022/04/27 02:35:06;;;;;;;7.63;5.05;;;;;;;13.75;83.38;100004.06;5030823;28;20033;-31
2022/04/27 02:37:32;;;;;;;7.15;4.97;;;;;;;13.69;82.51;99989.78;5030380;28;20056;-30
2022/04/27 02:39:58;;;;;;;7.53;4.63;;;;;;;13.64;82.89;99993.16;5030391;28;20029;-31
2022/04/27 02:42:25;;;;;;;7.97;4.68;;;;;;;13.61;82.60;99987.50;5029318;28;20041;-28
2022/04/27 02:44:50;;;;;;;9.10;4.85;;;;;;;13.45;83.60;100010.50;5030247;28;20139;-28
2022/04/27 02:47:16;;;;;;;7.05;4.70;;;;;;;13.31;83.58;99987.72;5030613;28;20112;-30
2022/04/27 02:52:25;;;;;;;6.75;4.63;;;;;;;13.42;83.31;100016.31;5030674;28;20421;-29
2022/04/27 02:54:51;;;;;;;8.45;4.68;;;;;;;13.29;83.29;100000.50;5030016;28;20484;-29
2022/04/27 02:57:16;;;;;;;8.40;4.93;;;;;;;13.54;82.85;100010.91;5030204;28;20036;-30
2022/04/27 02:59:43;;;;;;;6.47;4.82;;;;;;;13.63;82.29;100015.66;5030243;28;20025;-29
2022/04/27 03:02:09;;;;;;;7.50;4.65;;;;;;;13.36;82.39;100015.44;5029939;28;20156;-29
2022/04/27 03:04:34;;;;;;;7.57;4.93;;;;;;;13.26;82.70;100016.00;5028792;28;20871;-32
2022/04/27 03:07:00;;;;;;;6.93;4.68;;;;;;;13.41;81.98;100010.16;5029642;28;20083;-31
2022/04/27 03:09:26;;;;;;;5.88;4.25;;;;;;;13.35;81.92;99996.91;5030103;28;20048;-30
2022/04/27 03:11:52;;;;;;;7.63;4.45;;;;;;;13.38;81.02;100015.16;5030330;28;20041;-29
2022/04/27 03:14:18;;;;;;;5.78;4.60;;;;;;;13.04;82.21;99998.97;5028465;28;20413;-29
2022/04/27 03:16:44;;;;;;;7.45;4.40;;;;;;;13.19;82.09;100012.63;5029563;28;20033;-29
2022/04/27 03:19:10;;;;;;;7.03;4.47;;;;;;;13.30;81.14;100023.59;5029850;28;20068;-29
2022/04/27 03:21:35;;;;;;;6.88;4.85;;;;;;;13.11;81.41;100004.97;5029969;28;20492;-32
2022/04/27 03:24:01;;;;;;;8.85;4.90;;;;;;;13.01;82.12;100012.81;5029569;28;20021;-30
2022/04/27 03:26:26;;;;;;;6.32;4.50;;;;;;;13.05;82.77;100030.81;5029649;28;20017;-31
2022/04/27 03:28:52;;;;;;;7.50;4.38;;;;;;;13.09;82.91;100023.13;5029402;28;20029;-29
2022/04/27 03:31:17;;;;;;;7.07;4.75;;;;;;;13.09;81.94;100012.44;5029653;28;20033;-30
2022/04/27 03:33:42;;;;;;;7.07;5.05;;;;;;;13.12;82.51;100033.41;5028898;28;20409;-28
2022/04/27 03:36:11;;;;;;;6.45;4.60;;;;;;;13.34;81.03;100040.81;5029570;28;20061;-29
2022/04/27 03:38:38;;;;;;;7.53;4.40;;;;;;;13.11;81.96;100010.34;5029464;28;20072;-31
2022/04/27 03:41:04;;;;;;;7.55;4.30;;;;;;;13.38;81.08;100042.78;5029690;28;20029;-30
2022/04/27 03:43:30;;;;;;;8.73;4.35;;;;;;;13.22;81.74;100033.59;5029429;28;20021;-29
2022/04/27 03:45:55;;;;;;;6.43;4.40;;;;;;;13.08;81.83;100032.25;5029184;28;20030;-29
2022/04/27 03:48:21;;;;;;;6.28;4.55;;;;;;;13.26;81.03;100033.94;5029546;28;20627;-33
2022/04/27 03:50:46;;;;;;;6.43;4.13;;;;;;;13.36;80.96;100049.41;5027731;28;20472;-29
2022/04/27 03:53:11;;;;;;;6.40;4.35;;;;;;;13.46;80.58;100038.91;5029473;28;20659;-29
2022/04/27 03:55:37;;;;;;;8.93;4.07;;;;;;;13.36;81.17;100049.41;5029357;28;20366;-29
2022/04/27 03:58:06;;;;;;;7.40;4.55;;;;;;;13.45;80.76;100058.72;5029383;28;20493;-33
2022/04/27 04:00:32;;;;;;;7.75;4.30;;;;;;;13.45;79.97;100031.94;5029161;28;20105;-29
2022/04/27 04:03:00;;;;;;;6.65;4.75;;;;;;;13.45;80.75;100059.53;5027276;28;20026;-28
2022/04/27 04:05:25;;;;;;;9.65;4.55;;;;;;;13.23;81.83;100056.63;5029141;28;20470;-31
2022/04/27 04:07:51;;;;;;;5.97;4.57;;;;;;;13.21;81.41;100055.25;5028861;28;20064;-28
2022/04/27 04:10:16;;;;;;;6.72;4.85;;;;;;;12.76;84.39;100059.38;5029379;28;20030;-30
2022/04/27 04:12:47;;;;;;;7.03;4.38;;;;;;;12.81;83.56;100059.50;5028555;28;20483;-30
2022/04/27 04:15:13;;;;;;;5.40;3.90;;;;;;;12.85;83.64;100058.00;5028405;28;20731;-28
2022/04/27 04:17:44;;;;;;;5.60;3.88;;;;;;;12.71;85.00;100074.50;5027079;28;20029;-30
2022/04/27 04:20:12;;;;;;;5.90;4.38;;;;;;;13.32;82.26;100080.41;5027547;28;20535;-31
2022/04/27 04:22:38;;;;;;;6.35;4.25;;;;;;;13.30;82.50;100082.50;5028419;28;20123;-29
2022/04/27 04:30:32;;;;;;;6.50;4.15;;;;;;;14.04;79.65;100093.31;5028664;28;20048;-30
2022/04/27 04:32:57;;;;;;;5.20;3.33;;;;;;;14.10;79.01;100086.16;5028653;28;20530;-29
2022/04/27 04:35:23;;;;;;;5.60;3.63;;;;;;;14.08;79.44;100094.47;5028225;28;20037;-29
2022/04/27 04:37:49;;;;;;;6.88;3.80;;;;;;;13.83;80.47;100084.06;5028377;28;20048;-29
2022/04/27 04:40:14;;;;;;;8.45;4.03;;;;;;;13.98;79.89;100084.38;5028269;28;20022;-30
2022/04/27 04:42:39;;;;;;;10.95;4.90;;;;;;;13.99;81.04;100107.44;5027847;28;20029;-29
2022/04/27 04:45:06;;;;;;;13.38;6.40;;;;;;;13.86;81.54;100099.69;5028383;28;20029;-29
2022/04/27 04:47:31;;;;;;;12.75;7.20;;;;;;;13.68;82.48;100089.97;5026961;28;20029;-29
2022/04/27 04:49:56;;;;;;;8.32;5.93;;;;;;;13.94;82.10;100110.03;5026848;28;20124;-31
2022/04/27 04:52:22;;;;;;;8.07;5.68;;;;;;;13.95;82.11;100095.56;5026663;28;20107;-28
2022/04/27 04:54:47;;;;;;;8.85;5.15;;;;;;;14.33;81.34;100117.44;5027619;28;20034;-33
2022/04/27 04:57:13;;;;;;;7.57;3.63;;;;;;;14.10;81.46;100105.78;5026463;28;20037;-31
2022/04/27 04:59:38;;;;;;;5.13;3.53;;;;;;;14.33;80.34;100096.78;5026730;28;20497;-29
2022/04/27 05:02:04;;;;;;;5.60;3.83;;;;;;;14.40;81.23;100110.81;5028242;28;20681;-29
2022/04/27 05:04:30;;;;;;;7.25;3.70;;;;;;;14.53;79.72;100109.72;5026801;28;20038;-29
2022/04/27 05:06:56;;;;;;;5.63;3.80;;;;;;;14.25;80.87;100094.50;5027759;28;20029;-28
2022/04/27 05:09:22;;;;;;;5.18;3.17;;;;;;;14.42;80.63;100118.63;5027877;28;20091;-28
2022/04/27 05:11:47;;;;;;;5.85;3.28;;;;;;;14.78;78.63;100130.00;5027519;28;20041;-30
2022/04/27 05:14:13;;;;;;;6.78;3.72;;;;;;;14.70;79.57;100128.53;5026647;28;20456;-34
2022/04/27 05:16:38;;;;;;;5.55;3.67;;;;;;;14.72;80.01;100123.72;5027586;28;20557;-29
2022/04/27 05:19:04;;;;;;;5.72;3.50;;;;;;;14.81;80.51;100133.00;5027872;28;20028;-28
2022/04/27 05:21:29;;;;;;;5.18;3.70;;;;;;;14.89;78.58;100120.22;5027733;28;20025;-29
2022/04/27 05:23:55;;;;;;;5.65;3.60;;;;;;;15.04;78.84;100128.50;5027893;28;20029;-29
2022/04/27 05:26:21;;;;;;;4.82;3.10;;;;;;;15.00;79.23;100127.38;5026715;28;20429;-32
2022/04/27 05:34:15;;;;;;;4.72;3.03;;;;;;;15.61;74.74;100121.97;5031889;28;20120;-32
2022/04/27 05:36:40;;;;;;;5.00;3.45;;;;;;;15.75;75.46;100123.28;5031048;28;20488;-29
2022/04/27 05:39:06;;;;;;;7.80;3.45;;;;;;;15.76;74.91;100140.22;5030490;28;20087;-29
2022/04/27 05:41:31;;;;;;;4.55;3.20;;;;;;;15.93;75.08;100124.78;5031579;28;20036;-30
2022/04/27 05:43:57;;;;;;;5.45;3.30;;;;;;;16.24;72.81;100138.53;5031743;28;20120;-29
2022/04/27 05:46:22;;;;;;;4.90;3.50;;;;;;;16.13;72.52;100134.16;5031656;28;20037;-29
2022/04/27 05:48:48;;;;;;;4.85;3.25;;;;;;;16.39;73.00;100137.91;5031398;28;20517;-30
2022/04/27 05:51:13;;;;;;;5.20;2.92;;;;;;;16.41;71.74;100136.56;5031505;28;20033;-31
2022/04/27 05:53:41;;;;;;;5.30;2.85;;;;;;;16.35;70.58;100115.25;5031707;28;20025;-32
2022/04/27 05:56:07;;;;;;;4.38;3.08;;;;;;;16.29;74.01;100127.84;5030139;28;20044;-30
2022/04/27 05:58:32;;;;;;;5.15;3.25;;;;;;;16.56;73.34;100127.00;5031314;28;20112;-31
2022/04/27 06:00:58;;;;;;;6.22;3.22;;;;;;;16.83;72.06;100146.63;5031286;28;20505;-29
2022/04/27 06:03:23;;;;;;;6.40;3.10;;;;;;;16.69;71.62;100148.09;5013515;28;20087;-30
2022/04/27 06:05:49;;;;;;;4.47;2.83;;;;;;;16.91;72.04;100144.53;5031032;28;20036;-31
2022/04/27 06:08:14;;;;;;;5.47;3.20;;;;;;;16.81;70.65;100145.25;5031415;28;20029;-30
2022/04/27 06:10:40;;;;;;;5.88;2.72;;;;;;;16.82;70.64;100146.91;5030804;28;20031;-32
2022/04/27 06:13:06;;;;;;;5.18;2.65;;;;;;;16.85;70.71;100138.28;5031150;28;20028;-28
2022/04/27 06:15:32;;;;;;;6.25;2.90;;;;;;;16.84;71.95;100150.94;5030887;28;20079;-30
2022/04/27 06:17:57;;;;;;;4.50;2.50;;;;;;;16.96;70.95;100161.53;5030979;28;20025;-29
2022/04/27 06:20:23;;;;;;;4.72;2.85;;;;;;;16.65;71.49;100163.97;5030651;28;20835;-30
2022/04/27 06:22:48;;;;;;;6.65;3.20;;;;;;;16.78;72.30;100146.56;5030834;28;20037;-32
2022/04/27 06:25:14;;;;;;;4.88;2.70;;;;;;;17.29;68.66;100156.09;5030817;28;20030;-28
2022/04/27 06:27:40;;;;;;;6.40;2.90;;;;;;;17.58;68.14;100162.69;5028128;28;20412;-29
2022/04/27 06:30:06;;;;;;;4.30;2.97;;;;;;;17.54;67.77;100148.13;5028080;28;20025;-30
2022/04/27 06:32:32;;;;;;;3.85;2.60;;;;;;;17.70;68.17;100162.47;5029239;28;20112;-30
2022/04/27 06:34:59;;;;;;;3.85;2.47;;;;;;;17.82;67.11;100162.25;5029432;28;20041;-30
2022/04/27 06:37:28;;;;;;;3.63;2.45;;;;;;;18.13;66.73;100170.47;5029325;28;20057;-34
2022/04/27 06:39:54;;;;;;;3.72;2.22;;;;;;;17.96;65.99;100171.50;5029663;28;20105;-30
2022/04/27 06:42:20;;;;;;;4.82;2.40;;;;;;;17.85;65.92;100175.25;5030478;28;20128;-29
2022/04/27 06:44:46;;;;;;;5.32;3.05;;;;;;;17.81;67.20;100156.03;5030109;28;20040;-30
2022/04/27 06:47:12;;;;;;;3.60;2.33;;;;;;;17.97;66.89;100173.13;5030275;28;20026;-29
2022/04/27 06:49:38;;;;;;;3.70;2.70;;;;;;;18.30;67.47;100179.13;5030260;28;20032;-29
2022/04/27 06:52:04;;;;;;;4.07;2.40;;;;;;;18.37;65.99;100176.16;5030436;28;20034;-29
2022/04/27 06:54:29;;;;;;;3.80;2.53;;;;;;;18.63;67.02;100185.94;5030406;28;20025;-29
2022/04/27 06:56:54;;;;;;;3.58;2.42;;;;;;;19.00;64.88;100181.34;5029052;28;20049;-29
2022/04/27 06:59:20;;;;;;;4.40;2.33;;;;;;;18.95;63.36;100178.66;5030189;28;20029;-29
2022/04/27 07:01:46;;;;;;;3.88;2.40;;;;;;;19.19;64.00;100182.41;5030032;28;20033;-31
2022/04/27 07:04:11;;;;;;;4.97;2.78;;;;;;;18.98;62.84;100167.28;5029829;28;20079;-30
2022/04/27 07:06:38;;;;;;;4.53;2.70;;;;;;;18.93;63.40;100194.34;5030021;28;20025;-38
2022/04/27 07:09:07;;;;;;;4.15;2.95;;;;;;;19.04;65.22;100195.94;5028636;28;20040;-29
2022/04/27 07:11:33;;;;;;;7.80;3.72;;;;;;;19.13;65.11;100194.31;5028514;28;20040;-29
2022/04/27 07:13:59;;;;;;;5.68;2.80;;;;;;;19.05;62.28;100174.06;5029878;28;20029;-29
2022/04/27 07:16:24;;;;;;;5.35;3.10;;;;;;;19.48;64.25;100179.91;5027341;28;20044;-34
2022/04/27 07:18:50;;;;;;;4.47;3.00;;;;;;;19.17;63.50;100162.94;5029042;28;20029;-29
2022/04/27 07:21:16;;;;;;;5.70;3.08;;;;;;;19.46;62.35;100181.28;5029849;28;20029;-30
2022/04/27 07:23:41;;;;;;;4.93;3.22;;;;;;;19.33;61.67;100169.16;5029820;28;20029;-29
2022/04/27 07:26:07;;;;;;;5.03;3.10;;;;;;;19.17;62.57;100162.94;5029603;28;20021;-33
2022/04/27 07:28:35;;;;;;;5.57;3.28;;;;;;;19.49;62.72;100175.28;5029539;28;20029;-29
2022/04/27 07:31:00;;;;;;;6.95;3.45;;;;;;;19.40;63.41;100183.16;5027653;28;20030;-33
2022/04/27 07:33:26;;;;;;;7.93;3.85;;;;;;;19.81;62.77;100187.66;5029412;28;20045;-29
2022/04/27 07:35:52;;;;;;;6.75;3.60;;;;;;;19.94;61.66;100164.59;5029042;28;20057;-29
2022/04/27 07:38:17;;;;;;;6.20;2.90;;;;;;;20.04;60.79;100173.50;5029208;28;20025;-31
2022/04/27 07:40:43;;;;;;;5.55;3.30;;;;;;;20.24;60.09;100190.69;5027145;28;20095;-30
2022/04/27 07:43:08;;;;;;;7.20;3.40;;;;;;;20.54;59.44;100183.47;5027611;28;20026;-29
2022/04/27 07:45:34;;;;;;;4.78;3.30;;;;;;;20.62;60.71;100191.03;5029048;28;20616;-29
2022/04/27 07:47:59;;;;;;;9.30;3.17;;;;;;;20.82;59.93;100171.88;5028638;28;20062;-29
2022/04/27 07:50:24;;;;;;;5.25;2.70;;;;;;;20.92;57.34;100168.25;5028353;28;20417;-36
2022/04/27 07:52:51;;;;;;;4.57;2.85;;;;;;;20.90;57.79;100177.75;5028627;28;20029;-29
2022/04/27 07:55:17;;;;;;;4.93;2.88;;;;;;;21.07;56.10;100180.88;5027445;28;20030;-29
2022/04/27 07:57:42;;;;;;;4.13;2.97;;;;;;;21.03;55.28;100177.13;5027510;28;20033;-31
2022/04/27 08:00:11;;;;;;;4.18;3.00;;;;;;;20.93;55.44;100174.50;5028584;28;20683;-29
2022/04/27 08:02:37;;;;;;;5.07;2.70;;;;;;;20.86;54.85;100174.81;5027048;28;20028;-31
2022/04/27 08:05:03;;;;;;;4.80;2.90;;;;;;;20.70;54.68;100171.44;5028711;28;20033;-33
2022/04/27 08:07:39;;;;;;;4.60;2.72;;;;;;;21.11;55.01;100170.28;5027367;28;20026;-30
2022/04/27 08:10:11;;;;;;;6.47;2.70;;;;;;;21.36;54.15;100171.91;5028491;28;20475;-30
2022/04/27 08:12:38;;;;;;;5.65;2.80;;;;;;;21.53;53.96;100169.53;5028522;28;20510;-33
2022/04/27 08:15:05;;;;;;;4.32;2.60;;;;;;;21.82;54.57;100157.78;5028018;28;20037;-32
2022/04/27 08:17:30;;;;;;;4.18;2.60;;;;;;;22.01;51.40;100166.78;5027131;28;20037;-30
2022/04/27 08:21:13;;;;;;;4.55;2.60;;;;;;;21.87;51.22;100144.16;5028228;28;20052;-30
2022/04/27 08:22:41;;;;;;;4.43;2.63;;;;;;;21.97;51.26;100149.44;5027923;28;20030;-30
2022/04/27 08:25:07;;;;;;;4.80;2.80;;;;;;;22.11;51.52;100135.13;5027913;28;20029;-33
2022/04/27 08:27:32;;;;;;;4.43;1.80;;;;;;;22.40;50.86;100152.09;5026499;28;20039;-34
2022/04/27 08:29:58;;;;;;;4.82;2.25;;;;;;;;;;5028390;28;20034;-29
2022/04/27 08:32:23;;;;;;;4.63;1.90;;;;;;;22.64;46.52;100157.44;5026890;28;20036;-29
2022/04/27 08:34:49;;;;;;;4.35;2.10;;;;;;;22.49;48.82;100143.28;5027929;28;20824;-38
2022/04/27 08:37:15;;;;;;;3.85;1.85;;;;;;;22.76;47.15;100148.81;5027789;28;20492;-32
2022/04/27 08:39:40;;;;;;;3.55;1.83;;;;;;;22.89;47.47;100147.22;5028057;28;20485;-29
2022/04/27 08:42:06;;;;;;;6.43;2.20;;;;;;;23.12;48.50;100150.09;5027539;28;20140;-29
2022/04/27 08:44:31;;;;;;;3.47;1.73;;;;;;;23.11;49.07;100151.19;5028039;28;20040;-32
2022/04/27 08:46:58;;;;;;;4.57;1.90;;;;;;;22.99;47.59;100154.41;5027617;28;20414;-30
2022/04/27 08:49:24;;;;;;;11.98;2.05;;;;;;;23.19;48.11;100140.44;5028029;28;20033;-30
2022/04/27 08:51:50;;;;;;;7.30;2.95;;;;;;;23.32;47.53;100116.25;5026369;28;20022;-29
2022/04/27 08:54:16;;;;;;;3.30;1.80;;;;;;;23.50;46.85;100139.84;5026355;28;20552;-30
2022/04/27 08:56:42;;;;;;;12.10;2.88;;;;;;;23.64;48.70;100128.94;5027286;28;20064;-29
2022/04/27 08:59:08;;;;;;;3.75;1.70;;;;;;;23.47;45.93;100137.72;5026408;28;20140;-29
2022/04/27 09:01:34;;;;;;;4.32;1.73;;;;;;;23.72;47.18;100130.94;5027750;28;20494;-29
2022/04/27 09:04:14;;;;;;;4.18;1.70;;;;;;;23.70;47.18;100122.28;5026953;28;20025;-31
2022/04/27 09:06:41;;;;;;;4.78;2.00;;;;;;;24.29;44.95;100118.78;5027433;28;20168;-30
2022/04/27 09:09:13;;;;;;;3.47;1.90;;;;;;;24.36;43.07;100119.97;5025823;28;20087;-34
2022/04/27 09:11:39;;;;;;;6.35;2.42;;;;;;;24.11;44.60;100131.47;5027910;28;20895;-30
2022/04/27 09:14:09;;;;;;;8.10;1.80;;;;;;;23.91;47.18;100111.75;5027620;28;20078;-29
2022/04/27 09:22:08;;;;;;;5.90;1.60;;;;;;;24.93;42.04;100113.09;5027541;28;20099;-30
2022/04/27 09:24:51;;;;;;;5.20;1.65;;;;;;;24.76;41.25;100130.19;5027255;28;20037;-29
2022/04/27 09:27:22;;;;;;;5.28;1.58;;;;;;;24.77;41.15;100110.00;5025895;28;20032;-31
2022/04/27 09:30:10;;;;;;;4.80;1.50;;;;;;;25.19;40.89;100113.22;5027499;28;20555;-29
2022/04/27 09:32:35;;;;;;;4.18;1.65;;;;;;;24.79;42.10;100097.66;5027208;28;20461;-29
2022/04/27 09:35:03;;;;;;;4.65;1.73;;;;;;;24.98;40.66;100088.41;5027313;28;20030;-31
2022/04/27 09:37:37;;;;;;;7.13;1.67;;;;;;;25.17;41.17;100094.44;5025973;28;20072;-31
2022/04/27 09:40:07;;;;;;;5.20;1.88;;;;;;;25.53;41.34;100109.00;5027285;28;20041;-30
2022/04/27 09:42:38;;;;;;;3.78;2.35;;;;;;;25.57;42.62;100099.84;5026977;28;20052;-31
2022/04/27 09:45:25;;;;;;;4.07;1.70;;;;;;;25.50;40.41;100105.00;5027427;28;20052;-30
2022/04/27 09:47:57;;;;;;;4.13;1.83;;;;;;;25.39;42.12;100084.56;5027243;28;20033;-31
2022/04/27 09:50:23;;;;;;;4.28;1.85;;;;;;;25.52;42.44;100086.38;5027409;28;20041;-29
2022/04/27 09:52:49;;;;;;;3.08;1.50;;;;;;;25.81;38.17;100098.63;5026850;28;20084;-33
2022/04/27 09:55:15;;;;;;;3.38;1.60;;;;;;;26.05;38.88;100089.94;5026035;28;20040;-29
2022/04/27 09:57:42;;;;;;;5.40;1.70;;;;;;;25.90;38.46;100093.19;5025769;28;20048;-29
2022/04/27 10:00:09;;;;;;;4.10;1.80;;;;;;;25.96;37.83;100089.16;5027217;28;20040;-32
2022/04/27 10:02:37;;;;;;;4.07;2.00;;;;;;;25.61;39.15;100089.09;5025514;28;20037;-29
2022/04/27 10:05:04;;;;;;;4.75;1.77;;;;;;;25.94;38.93;100080.47;5009351;28;20034;-30
2022/04/27 10:07:32;;;;;;;3.97;1.70;;;;;;;26.59;38.59;100089.59;5025251;28;20432;-30
2022/04/27 10:09:58;;;;;;;4.97;1.90;;;;;;;26.34;38.46;100067.41;5025614;28;20034;-33
2022/04/27 10:12:24;;;;;;;3.90;1.65;;;;;;;26.20;37.38;100094.13;5027556;28;20087;-31
2022/04/27 10:14:50;;;;;;;7.72;1.90;;;;;;;26.24;36.50;100081.44;5030695;28;20025;-30
2022/04/27 10:17:16;;;;;;;7.45;2.08;;;;;;;26.54;37.05;100086.97;5030749;28;20037;-32
2022/04/27 10:19:49;;;;;;;11.50;6.10;;;;;;;26.79;35.01;100082.63;5030536;28;20029;-30
2022/04/27 10:22:25;;;;;;;6.45;2.58;;;;;;;26.17;32.14;100075.63;5030384;28;20087;-30
2022/04/27 10:24:51;;;;;;;4.40;1.50;;;;;;;26.24;33.85;100070.50;5030236;28;20460;-33
2022/04/27 10:27:33;;;;;;;2.55;1.40;;;;;;;26.46;31.67;100085.91;5029128;28;20057;-30
2022/04/27 10:30:10;;;;;;;4.45;1.40;;;;;;;26.19;32.18;100082.38;5030464;28;20063;-29
2022/04/27 10:32:43;;;;;;;7.73;4.47;;;;;;;26.43;32.81;100081.88;5030400;28;20063;-29
2022/04/27 10:35:11;;;;;;;7.28;3.80;;;;;;;26.67;33.76;100080.56;5030463;28;20185;-32
2022/04/27 10:38:02;;;;;;;7.47;2.00;;;;;;;26.66;32.85;100076.19;5028957;28;20059;-31
2022/04/27 10:40:37;;;;;;;8.50;2.35;;;;;;;27.32;31.99;100089.47;5028950;28;20083;-30
2022/04/27 10:43:04;;;;;;;4.00;1.40;;;;;;;27.49;31.48;100071.34;5030033;28;20037;-33
2022/04/27 10:45:30;;;;;;;9.47;2.40;;;;;;;27.41;31.96;100053.81;5028925;28;20044;-32
2022/04/27 10:47:55;;;;;;;7.65;1.60;;;;;;;27.46;32.49;100064.56;5030204;28;20260;-30
2022/04/27 10:50:28;;;;;;;6.50;1.55;;;;;;;27.46;31.26;100061.81;5028841;28;20052;-31
2022/04/27 10:52:55;;;;;;;6.45;1.48;;;;;;;27.78;32.85;100070.47;5029731;28;20028;-29
2022/04/27 10:55:37;;;;;;;3.85;1.48;;;;;;;27.99;33.34;100062.25;5029843;28;20068;-30
2022/04/27 10:58:12;;;;;;;2.63;1.45;;;;;;;27.58;33.07;100064.66;5029920;28;20065;-29
2022/04/27 11:01:01;;;;;;;6.93;2.00;;;;;;;28.00;31.92;100064.66;5029749;28;20049;-34
2022/04/27 11:03:30;;;;;;;6.07;1.50;;;;;;;28.10;31.91;100049.75;5029803;28;20025;-31
2022/04/27 11:06:01;;;;;;;7.22;1.60;;;;;;;28.43;32.45;100057.16;5029478;28;20056;-29
2022/04/27 11:09:17;;;;;;;3.70;1.38;;;;;;;27.97;33.47;100042.59;5029720;28;20475;-31
2022/04/27 11:11:53;;;;;;;4.88;1.50;;;;;;;28.09;33.57;100050.06;5007064;28;20505;-30
2022/04/27 11:14:22;;;;;;;7.97;2.17;;;;;;;27.59;33.03;100038.06;5007082;28;20573;-32
2022/04/27 11:16:48;;;;;;;6.10;1.73;;;;;;;27.91;34.25;100044.78;5019273;28;20135;-29
2022/04/27 11:19:14;;;;;;;8.00;2.00;;;;;;;27.57;34.75;100046.63;5029819;28;20040;-29
2022/04/27 11:21:40;;;;;;;6.65;2.20;;;;;;;27.60;34.75;100029.53;5029537;28;20043;-30
2022/04/27 11:24:07;;;;;;;5.43;1.98;;;;;;;27.88;34.26;100023.50;5026846;28;20025;-35
2022/04/27 11:26:44;;;;;;;6.65;2.10;;;;;;;27.78;34.65;100027.41;5029048;28;20040;-31
2022/04/27 11:29:15;;;;;;;7.80;1.80;;;;;;;27.90;33.87;100032.19;5029327;28;20120;-31
2022/04/27 11:31:44;;;;;;;11.43;2.30;;;;;;;27.94;33.48;100024.91;5029295;28;20037;-30
2022/04/27 11:34:24;;;;;;;9.93;2.28;;;;;;;28.38;33.26;100030.75;5029306;28;20076;-33
2022/04/27 11:36:50;;;;;;;12.30;2.30;;;;;;;28.23;32.30;100025.91;5028801;28;20128;-29
2022/04/27 11:39:24;;;;;;;9.25;2.45;;;;;;;28.00;31.10;100020.81;5029079;28;20025;-32
2022/04/27 11:42:00;;;;;;;15.95;2.90;;;;;;;28.34;31.90;100012.56;5029121;28;20084;-29
2022/04/27 11:44:30;;;;;;;8.05;2.50;;;;;;;28.61;31.48;100005.66;5027624;28;20037;-30
2022/04/27 11:46:58;;;;;;;8.20;2.20;;;;;;;28.84;32.26;100014.25;5028604;28;20620;-31
2022/04/27 11:49:24;;;;;;;7.15;2.10;;;;;;;28.69;31.71;100009.44;5029084;28;20482;-30